This is the latest recevied weather packets stored in our database for station/object N6DZK. If no packets are shown the sender has not sent any weather packets the latest 10 day(s).
| Time | Temp. | Humidity | Pressure | Rain* | Wind** | Luminosity | Snow |
|---|---|---|---|---|---|---|---|
| 1777842787 | 20° C | 52% | 1013 hPa | 0 mm | - | 565 W/m² | - |
| 1777842487 | 20.56° C | 52% | 1013.4 hPa | 0 mm | - | 780 W/m² | - |
| 1777841577 | 21.11° C | 50% | 1013.2 hPa | 0 mm | - | 1251 W/m² | - |
| 1777840668 | 20.56° C | 52% | 1013.3 hPa | 0 mm | - | 595 W/m² | - |
| 1777840365 | 20° C | 53% | 1013.2 hPa | 0 mm | - | 597 W/m² | - |
| 1777840062 | 20° C | 53% | 1013.4 hPa | 0 mm | - | 517 W/m² | - |
| 1777839760 | 20° C | 53% | 1013.6 hPa | 0 mm | - | 571 W/m² | - |
| 1777839458 | 20° C | 53% | 1013.4 hPa | 0 mm | - | 519 W/m² | - |
| 1777838852 | 19.44° C | 54% | 1013.7 hPa | 0 mm | - | 479 W/m² | - |
| 1777837942 | 19.44° C | 53% | 1013.6 hPa | 0 mm | - | 333 W/m² | - |
| 1777836728 | 19.44° C | 52% | 1013.6 hPa | 0 mm | - | 426 W/m² | - |
| 1777834603 | 18.89° C | 56% | 1013.8 hPa | 0 mm | - | 532 W/m² | - |
| 1777834298 | 18.89° C | 56% | 1013.7 hPa | 0 mm | - | 388 W/m² | - |
| 1777833386 | 19.44° C | 56% | 1013.6 hPa | 0 mm | - | 377 W/m² | - |
| 1777833084 | 19.44° C | 54% | 1013.8 hPa | 0 mm | - | 421 W/m² | - |
| 1777832782 | 19.44° C | 56% | 1013.9 hPa | 0 mm | - | 852 W/m² | - |
| 1777832480 | 18.89° C | 57% | 1013.8 hPa | 0 mm | - | 470 W/m² | - |
| 1777832177 | 19.44° C | 57% | 1013.8 hPa | 0 mm | - | 342 W/m² | - |
| 1777831571 | 20° C | 52% | 1013.6 hPa | 0 mm | - | 381 W/m² | - |
| 1777831269 | 21.11° C | 50% | 1013.8 hPa | 0 mm | - | 510 W/m² | - |
| 1777830056 | 19.44° C | 56% | 1013.8 hPa | 0 mm | - | 327 W/m² | - |
| 1777829145 | 20.56° C | 55% | 1013.6 hPa | 0 mm | - | 874 W/m² | - |
| 1777828236 | 18.89° C | 63% | 1013.7 hPa | 0 mm | - | 681 W/m² | - |
| 1777827932 | 17.22° C | 68% | 1013.6 hPa | 0 mm | - | 882 W/m² | - |
| 1777827327 | 18.89° C | 60% | 1013.4 hPa | 0 mm | - | 251 W/m² | - |
* Rain latest hour (hover to see other rain measurements)
** Current wind speed in m/s (hover to see current wind gust speed)